sensor_id;sensor_type;location;lat;lon;timestamp;P1;durP1;ratioP1;P2;durP2;ratioP2
4754;SDS011;2391;47.212;7.542;2022-07-29T00:00:07;3.00;;;2.80;;
4754;SDS011;2391;47.212;7.542;2022-07-29T00:02:34;3.83;;;3.53;;
4754;SDS011;2391;47.212;7.542;2022-07-29T00:05:01;4.40;;;2.80;;
4754;SDS011;2391;47.212;7.542;2022-07-29T00:07:27;5.10;;;2.60;;
4754;SDS011;2391;47.212;7.542;2022-07-29T00:09:53;3.53;;;3.23;;
4754;SDS011;2391;47.212;7.542;2022-07-29T00:12:20;4.43;;;2.80;;
4754;SDS011;2391;47.212;7.542;2022-07-29T00:14:48;3.03;;;2.93;;
4754;SDS011;2391;47.212;7.542;2022-07-29T00:17:14;2.80;;;2.50;;
4754;SDS011;2391;47.212;7.542;2022-07-29T00:19:40;3.07;;;2.87;;
4754;SDS011;2391;47.212;7.542;2022-07-29T00:22:06;4.93;;;2.57;;
4754;SDS011;2391;47.212;7.542;2022-07-29T00:24:32;3.53;;;2.30;;
4754;SDS011;2391;47.212;7.542;2022-07-29T00:26:58;2.90;;;2.70;;
4754;SDS011;2391;47.212;7.542;2022-07-29T00:29:24;2.50;;;2.37;;
4754;SDS011;2391;47.212;7.542;2022-07-29T00:31:50;3.60;;;3.30;;
4754;SDS011;2391;47.212;7.542;2022-07-29T00:34:16;3.40;;;3.00;;
4754;SDS011;2391;47.212;7.542;2022-07-29T00:37:00;3.83;;;3.23;;
4754;SDS011;2391;47.212;7.542;2022-07-29T00:39:26;4.30;;;3.07;;
4754;SDS011;2391;47.212;7.542;2022-07-29T00:41:52;3.40;;;3.00;;
4754;SDS011;2391;47.212;7.542;2022-07-29T00:44:18;3.30;;;3.10;;
4754;SDS011;2391;47.212;7.542;2022-07-29T00:46:43;3.50;;;3.30;;
4754;SDS011;2391;47.212;7.542;2022-07-29T00:49:09;3.60;;;3.30;;
4754;SDS011;2391;47.212;7.542;2022-07-29T00:51:36;5.63;;;3.90;;
4754;SDS011;2391;47.212;7.542;2022-07-29T00:54:02;12.23;;;3.20;;
4754;SDS011;2391;47.212;7.542;2022-07-29T00:56:32;7.63;;;3.57;;
4754;SDS011;2391;47.212;7.542;2022-07-29T00:58:59;3.73;;;3.53;;
4754;SDS011;2391;47.212;7.542;2022-07-29T01:01:25;4.90;;;4.50;;
4754;SDS011;2391;47.212;7.542;2022-07-29T01:03:52;4.67;;;4.30;;
4754;SDS011;2391;47.212;7.542;2022-07-29T01:06:18;7.50;;;4.03;;
4754;SDS011;2391;47.212;7.542;2022-07-29T01:08:45;3.40;;;3.10;;
4754;SDS011;2391;47.212;7.542;2022-07-29T01:11:13;4.33;;;3.40;;
4754;SDS011;2391;47.212;7.542;2022-07-29T01:13:40;4.63;;;4.20;;
4754;SDS011;2391;47.212;7.542;2022-07-29T01:16:10;5.17;;;4.70;;
4754;SDS011;2391;47.212;7.542;2022-07-29T01:18:42;5.53;;;4.23;;
4754;SDS011;2391;47.212;7.542;2022-07-29T01:26:31;5.67;;;4.13;;
4754;SDS011;2391;47.212;7.542;2022-07-29T01:34:07;6.90;;;5.07;;
4754;SDS011;2391;47.212;7.542;2022-07-29T01:36:37;5.60;;;4.60;;
4754;SDS011;2391;47.212;7.542;2022-07-29T01:41:57;5.10;;;4.60;;
4754;SDS011;2391;47.212;7.542;2022-07-29T01:44:35;8.83;;;4.67;;
4754;SDS011;2391;47.212;7.542;2022-07-29T01:47:14;5.40;;;4.87;;
4754;SDS011;2391;47.212;7.542;2022-07-29T01:49:43;7.00;;;4.30;;
4754;SDS011;2391;47.212;7.542;2022-07-29T01:52:23;5.23;;;4.73;;
4754;SDS011;2391;47.212;7.542;2022-07-29T01:54:55;5.20;;;4.30;;
4754;SDS011;2391;47.212;7.542;2022-07-29T01:57:21;5.50;;;4.33;;
4754;SDS011;2391;47.212;7.542;2022-07-29T01:59:52;7.43;;;3.97;;
4754;SDS011;2391;47.212;7.542;2022-07-29T02:02:19;14.83;;;5.60;;
4754;SDS011;2391;47.212;7.542;2022-07-29T02:04:47;5.97;;;4.40;;
4754;SDS011;2391;47.212;7.542;2022-07-29T02:07:17;5.27;;;4.87;;
4754;SDS011;2391;47.212;7.542;2022-07-29T02:09:44;11.77;;;5.53;;
4754;SDS011;2391;47.212;7.542;2022-07-29T02:12:12;11.73;;;5.03;;
4754;SDS011;2391;47.212;7.542;2022-07-29T02:14:42;5.97;;;4.57;;
4754;SDS011;2391;47.212;7.542;2022-07-29T02:17:10;7.70;;;5.77;;
4754;SDS011;2391;47.212;7.542;2022-07-29T02:19:38;7.30;;;5.40;;
4754;SDS011;2391;47.212;7.542;2022-07-29T02:22:06;5.30;;;4.80;;
4754;SDS011;2391;47.212;7.542;2022-07-29T02:24:35;8.63;;;4.90;;
4754;SDS011;2391;47.212;7.542;2022-07-29T02:27:02;6.40;;;5.17;;
4754;SDS011;2391;47.212;7.542;2022-07-29T02:29:30;6.47;;;5.60;;
4754;SDS011;2391;47.212;7.542;2022-07-29T02:31:57;5.87;;;5.27;;
4754;SDS011;2391;47.212;7.542;2022-07-29T02:34:24;10.30;;;5.37;;
4754;SDS011;2391;47.212;7.542;2022-07-29T02:36:52;5.50;;;4.90;;
4754;SDS011;2391;47.212;7.542;2022-07-29T02:39:19;6.30;;;5.73;;
4754;SDS011;2391;47.212;7.542;2022-07-29T02:41:55;8.17;;;5.30;;
4754;SDS011;2391;47.212;7.542;2022-07-29T02:44:24;7.50;;;5.40;;
4754;SDS011;2391;47.212;7.542;2022-07-29T02:49:57;5.30;;;4.90;;
4754;SDS011;2391;47.212;7.542;2022-07-29T02:52:42;6.37;;;5.23;;
4754;SDS011;2391;47.212;7.542;2022-07-29T03:00:22;6.40;;;5.90;;
4754;SDS011;2391;47.212;7.542;2022-07-29T03:02:52;5.07;;;4.57;;
4754;SDS011;2391;47.212;7.542;2022-07-29T03:05:20;8.53;;;5.50;;
4754;SDS011;2391;47.212;7.542;2022-07-29T03:07:51;4.60;;;4.30;;
4754;SDS011;2391;47.212;7.542;2022-07-29T03:10:17;5.03;;;4.73;;
4754;SDS011;2391;47.212;7.542;2022-07-29T03:12:43;5.77;;;5.27;;
4754;SDS011;2391;47.212;7.542;2022-07-29T03:15:10;7.50;;;5.70;;
4754;SDS011;2391;47.212;7.542;2022-07-29T03:17:36;5.37;;;4.97;;
4754;SDS011;2391;47.212;7.542;2022-07-29T03:20:03;5.63;;;5.13;;
4754;SDS011;2391;47.212;7.542;2022-07-29T03:22:29;11.30;;;5.60;;
4754;SDS011;2391;47.212;7.542;2022-07-29T03:24:56;8.33;;;4.73;;
4754;SDS011;2391;47.212;7.542;2022-07-29T03:27:21;5.83;;;5.23;;
4754;SDS011;2391;47.212;7.542;2022-07-29T03:29:47;6.77;;;4.97;;
4754;SDS011;2391;47.212;7.542;2022-07-29T03:32:13;5.00;;;4.60;;
4754;SDS011;2391;47.212;7.542;2022-07-29T03:34:39;5.03;;;4.63;;
4754;SDS011;2391;47.212;7.542;2022-07-29T03:37:05;6.50;;;4.80;;
4754;SDS011;2391;47.212;7.542;2022-07-29T03:39:33;6.40;;;5.20;;
4754;SDS011;2391;47.212;7.542;2022-07-29T03:42:01;5.90;;;5.27;;
4754;SDS011;2391;47.212;7.542;2022-07-29T03:44:29;8.07;;;7.27;;
4754;SDS011;2391;47.212;7.542;2022-07-29T03:46:57;5.80;;;5.30;;
4754;SDS011;2391;47.212;7.542;2022-07-29T03:49:27;13.37;;;6.80;;
4754;SDS011;2391;47.212;7.542;2022-07-29T03:51:53;6.97;;;6.40;;
4754;SDS011;2391;47.212;7.542;2022-07-29T03:54:19;15.50;;;7.90;;
4754;SDS011;2391;47.212;7.542;2022-07-29T03:56:46;11.07;;;7.83;;
4754;SDS011;2391;47.212;7.542;2022-07-29T03:59:15;11.57;;;9.80;;
4754;SDS011;2391;47.212;7.542;2022-07-29T04:01:44;13.10;;;10.50;;
4754;SDS011;2391;47.212;7.542;2022-07-29T04:04:11;15.00;;;11.33;;
4754;SDS011;2391;47.212;7.542;2022-07-29T04:06:41;13.87;;;10.67;;
4754;SDS011;2391;47.212;7.542;2022-07-29T04:09:08;11.37;;;10.10;;
4754;SDS011;2391;47.212;7.542;2022-07-29T04:11:35;12.40;;;10.60;;
4754;SDS011;2391;47.212;7.542;2022-07-29T04:14:03;13.40;;;10.80;;
4754;SDS011;2391;47.212;7.542;2022-07-29T04:16:29;13.40;;;9.40;;
4754;SDS011;2391;47.212;7.542;2022-07-29T04:18:55;13.50;;;10.63;;
4754;SDS011;2391;47.212;7.542;2022-07-29T04:21:21;12.97;;;10.63;;
4754;SDS011;2391;47.212;7.542;2022-07-29T04:23:47;12.73;;;10.00;;
4754;SDS011;2391;47.212;7.542;2022-07-29T04:26:14;10.93;;;9.80;;
4754;SDS011;2391;47.212;7.542;2022-07-29T04:28:42;11.00;;;9.90;;
4754;SDS011;2391;47.212;7.542;2022-07-29T04:31:08;10.70;;;9.60;;
4754;SDS011;2391;47.212;7.542;2022-07-29T04:33:35;12.87;;;10.37;;
4754;SDS011;2391;47.212;7.542;2022-07-29T04:36:01;10.70;;;8.90;;
4754;SDS011;2391;47.212;7.542;2022-07-29T04:38:27;12.13;;;9.07;;
4754;SDS011;2391;47.212;7.542;2022-07-29T04:40:52;8.83;;;7.97;;
4754;SDS011;2391;47.212;7.542;2022-07-29T04:43:18;9.47;;;7.00;;
4754;SDS011;2391;47.212;7.542;2022-07-29T04:45:44;10.33;;;7.67;;
4754;SDS011;2391;47.212;7.542;2022-07-29T04:48:10;7.33;;;6.60;;
4754;SDS011;2391;47.212;7.542;2022-07-29T04:50:39;8.60;;;7.60;;
4754;SDS011;2391;47.212;7.542;2022-07-29T04:53:06;5.77;;;5.27;;
4754;SDS011;2391;47.212;7.542;2022-07-29T04:55:32;6.23;;;5.70;;
4754;SDS011;2391;47.212;7.542;2022-07-29T04:57:58;6.37;;;5.03;;
4754;SDS011;2391;47.212;7.542;2022-07-29T05:00:24;7.90;;;5.93;;
4754;SDS011;2391;47.212;7.542;2022-07-29T05:02:50;5.17;;;4.77;;
4754;SDS011;2391;47.212;7.542;2022-07-29T05:05:16;6.00;;;5.20;;
4754;SDS011;2391;47.212;7.542;2022-07-29T05:07:42;5.10;;;4.67;;
4754;SDS011;2391;47.212;7.542;2022-07-29T05:10:08;6.33;;;4.47;;
4754;SDS011;2391;47.212;7.542;2022-07-29T05:12:34;4.87;;;4.27;;
4754;SDS011;2391;47.212;7.542;2022-07-29T05:15:00;5.17;;;4.77;;
4754;SDS011;2391;47.212;7.542;2022-07-29T05:17:26;6.33;;;4.63;;
4754;SDS011;2391;47.212;7.542;2022-07-29T05:19:52;5.33;;;4.93;;
4754;SDS011;2391;47.212;7.542;2022-07-29T05:22:18;6.70;;;5.10;;
4754;SDS011;2391;47.212;7.542;2022-07-29T05:24:44;8.67;;;4.50;;
4754;SDS011;2391;47.212;7.542;2022-07-29T05:27:10;5.13;;;4.50;;
4754;SDS011;2391;47.212;7.542;2022-07-29T05:29:36;5.20;;;4.70;;
4754;SDS011;2391;47.212;7.542;2022-07-29T05:32:03;5.87;;;4.83;;
4754;SDS011;2391;47.212;7.542;2022-07-29T05:34:29;5.90;;;5.13;;
4754;SDS011;2391;47.212;7.542;2022-07-29T05:36:56;6.97;;;5.73;;
4754;SDS011;2391;47.212;7.542;2022-07-29T05:39:22;6.37;;;5.80;;
4754;SDS011;2391;47.212;7.542;2022-07-29T05:41:48;6.97;;;5.43;;
4754;SDS011;2391;47.212;7.542;2022-07-29T05:44:15;8.83;;;5.77;;
4754;SDS011;2391;47.212;7.542;2022-07-29T05:46:40;6.93;;;4.80;;
4754;SDS011;2391;47.212;7.542;2022-07-29T05:49:06;6.97;;;5.90;;
4754;SDS011;2391;47.212;7.542;2022-07-29T05:51:33;5.77;;;5.33;;
4754;SDS011;2391;47.212;7.542;2022-07-29T05:53:59;12.40;;;5.93;;
4754;SDS011;2391;47.212;7.542;2022-07-29T05:56:25;11.77;;;5.47;;
4754;SDS011;2391;47.212;7.542;2022-07-29T05:58:51;6.33;;;5.50;;
4754;SDS011;2391;47.212;7.542;2022-07-29T06:01:17;5.47;;;4.97;;
4754;SDS011;2391;47.212;7.542;2022-07-29T06:03:43;7.10;;;5.30;;
4754;SDS011;2391;47.212;7.542;2022-07-29T06:06:09;6.17;;;5.57;;
4754;SDS011;2391;47.212;7.542;2022-07-29T06:08:35;6.60;;;5.20;;
4754;SDS011;2391;47.212;7.542;2022-07-29T06:11:02;5.20;;;4.80;;
4754;SDS011;2391;47.212;7.542;2022-07-29T06:13:29;6.77;;;6.23;;
4754;SDS011;2391;47.212;7.542;2022-07-29T06:15:55;6.60;;;6.00;;
4754;SDS011;2391;47.212;7.542;2022-07-29T06:18:21;7.20;;;5.97;;
4754;SDS011;2391;47.212;7.542;2022-07-29T06:20:52;7.77;;;6.23;;
4754;SDS011;2391;47.212;7.542;2022-07-29T06:23:19;8.10;;;6.47;;
4754;SDS011;2391;47.212;7.542;2022-07-29T06:25:45;8.10;;;7.30;;
4754;SDS011;2391;47.212;7.542;2022-07-29T06:28:12;7.10;;;6.40;;
4754;SDS011;2391;47.212;7.542;2022-07-29T06:30:38;7.50;;;6.40;;
4754;SDS011;2391;47.212;7.542;2022-07-29T06:33:04;7.13;;;6.47;;
4754;SDS011;2391;47.212;7.542;2022-07-29T06:35:32;8.47;;;7.57;;
4754;SDS011;2391;47.212;7.542;2022-07-29T06:38:00;7.50;;;6.80;;
4754;SDS011;2391;47.212;7.542;2022-07-29T06:40:27;8.80;;;7.93;;
4754;SDS011;2391;47.212;7.542;2022-07-29T06:43:11;8.20;;;7.40;;
4754;SDS011;2391;47.212;7.542;2022-07-29T06:45:37;7.90;;;7.10;;
4754;SDS011;2391;47.212;7.542;2022-07-29T06:48:05;11.93;;;8.70;;
4754;SDS011;2391;47.212;7.542;2022-07-29T06:50:31;9.83;;;8.83;;
4754;SDS011;2391;47.212;7.542;2022-07-29T06:52:57;10.10;;;8.60;;
4754;SDS011;2391;47.212;7.542;2022-07-29T06:55:23;8.70;;;7.80;;
4754;SDS011;2391;47.212;7.542;2022-07-29T06:57:50;9.63;;;7.87;;
4754;SDS011;2391;47.212;7.542;2022-07-29T07:00:16;9.50;;;8.60;;
4754;SDS011;2391;47.212;7.542;2022-07-29T07:02:43;7.87;;;7.07;;
4754;SDS011;2391;47.212;7.542;2022-07-29T07:05:09;8.67;;;7.50;;
4754;SDS011;2391;47.212;7.542;2022-07-29T07:07:35;7.97;;;7.30;;
4754;SDS011;2391;47.212;7.542;2022-07-29T07:10:01;12.43;;;8.30;;
4754;SDS011;2391;47.212;7.542;2022-07-29T07:12:26;7.70;;;7.10;;
4754;SDS011;2391;47.212;7.542;2022-07-29T07:14:52;8.43;;;7.27;;
4754;SDS011;2391;47.212;7.542;2022-07-29T07:17:18;8.50;;;7.07;;
4754;SDS011;2391;47.212;7.542;2022-07-29T07:19:44;9.00;;;7.93;;
4754;SDS011;2391;47.212;7.542;2022-07-29T07:22:10;10.87;;;8.37;;
4754;SDS011;2391;47.212;7.542;2022-07-29T07:24:36;9.70;;;7.80;;
4754;SDS011;2391;47.212;7.542;2022-07-29T07:27:02;9.70;;;8.67;;
4754;SDS011;2391;47.212;7.542;2022-07-29T07:29:28;10.50;;;8.77;;
4754;SDS011;2391;47.212;7.542;2022-07-29T07:31:54;15.50;;;10.10;;
4754;SDS011;2391;47.212;7.542;2022-07-29T07:34:20;9.53;;;8.53;;
4754;SDS011;2391;47.212;7.542;2022-07-29T07:36:46;12.13;;;10.50;;
4754;SDS011;2391;47.212;7.542;2022-07-29T07:39:12;10.33;;;9.33;;
4754;SDS011;2391;47.212;7.542;2022-07-29T07:41:38;10.00;;;9.00;;
4754;SDS011;2391;47.212;7.542;2022-07-29T07:44:04;11.03;;;8.17;;
4754;SDS011;2391;47.212;7.542;2022-07-29T07:46:30;12.20;;;9.27;;
4754;SDS011;2391;47.212;7.542;2022-07-29T07:48:56;10.23;;;9.17;;
4754;SDS011;2391;47.212;7.542;2022-07-29T07:51:22;9.47;;;8.57;;
4754;SDS011;2391;47.212;7.542;2022-07-29T07:53:48;10.40;;;9.30;;
4754;SDS011;2391;47.212;7.542;2022-07-29T07:56:15;11.80;;;8.83;;
4754;SDS011;2391;47.212;7.542;2022-07-29T07:58:42;7.63;;;6.93;;
4754;SDS011;2391;47.212;7.542;2022-07-29T08:01:08;8.20;;;7.40;;
4754;SDS011;2391;47.212;7.542;2022-07-29T08:03:34;8.43;;;7.27;;
4754;SDS011;2391;47.212;7.542;2022-07-29T08:06:00;8.90;;;6.33;;
4754;SDS011;2391;47.212;7.542;2022-07-29T08:08:26;6.77;;;6.17;;
4754;SDS011;2391;47.212;7.542;2022-07-29T08:10:52;6.93;;;5.87;;
4754;SDS011;2391;47.212;7.542;2022-07-29T08:13:19;4.60;;;4.20;;
4754;SDS011;2391;47.212;7.542;2022-07-29T08:15:46;5.07;;;4.57;;
4754;SDS011;2391;47.212;7.542;2022-07-29T08:18:13;5.07;;;4.60;;
4754;SDS011;2391;47.212;7.542;2022-07-29T08:20:39;7.80;;;4.60;;
4754;SDS011;2391;47.212;7.542;2022-07-29T08:23:06;7.13;;;5.50;;
4754;SDS011;2391;47.212;7.542;2022-07-29T08:25:38;7.10;;;4.67;;
4754;SDS011;2391;47.212;7.542;2022-07-29T08:28:03;6.03;;;5.43;;
4754;SDS011;2391;47.212;7.542;2022-07-29T08:30:29;5.13;;;4.67;;
4754;SDS011;2391;47.212;7.542;2022-07-29T08:32:55;5.43;;;4.87;;
4754;SDS011;2391;47.212;7.542;2022-07-29T08:35:22;7.43;;;4.70;;
4754;SDS011;2391;47.212;7.542;2022-07-29T08:37:49;6.30;;;4.80;;
4754;SDS011;2391;47.212;7.542;2022-07-29T08:40:15;5.00;;;4.50;;
4754;SDS011;2391;47.212;7.542;2022-07-29T08:42:41;4.80;;;4.50;;
4754;SDS011;2391;47.212;7.542;2022-07-29T08:45:07;5.40;;;4.90;;
4754;SDS011;2391;47.212;7.542;2022-07-29T08:47:34;7.50;;;5.00;;
4754;SDS011;2391;47.212;7.542;2022-07-29T08:50:09;6.60;;;4.97;;
4754;SDS011;2391;47.212;7.542;2022-07-29T08:52:35;6.47;;;4.53;;
4754;SDS011;2391;47.212;7.542;2022-07-29T08:55:03;6.00;;;4.47;;
4754;SDS011;2391;47.212;7.542;2022-07-29T08:57:31;5.93;;;4.80;;
4754;SDS011;2391;47.212;7.542;2022-07-29T08:59:59;4.80;;;4.50;;
4754;SDS011;2391;47.212;7.542;2022-07-29T09:02:28;5.77;;;4.70;;
4754;SDS011;2391;47.212;7.542;2022-07-29T09:04:56;7.00;;;5.23;;
4754;SDS011;2391;47.212;7.542;2022-07-29T09:07:25;5.30;;;4.23;;
4754;SDS011;2391;47.212;7.542;2022-07-29T09:09:50;6.67;;;5.40;;
4754;SDS011;2391;47.212;7.542;2022-07-29T09:12:16;5.17;;;4.67;;
4754;SDS011;2391;47.212;7.542;2022-07-29T09:14:43;4.43;;;3.50;;
4754;SDS011;2391;47.212;7.542;2022-07-29T09:17:09;4.13;;;3.77;;
4754;SDS011;2391;47.212;7.542;2022-07-29T09:19:35;6.90;;;4.50;;
4754;SDS011;2391;47.212;7.542;2022-07-29T09:22:03;3.60;;;3.30;;
4754;SDS011;2391;47.212;7.542;2022-07-29T09:24:44;3.00;;;2.80;;
4754;SDS011;2391;47.212;7.542;2022-07-29T09:27:22;4.13;;;3.03;;
4754;SDS011;2391;47.212;7.542;2022-07-29T09:30:07;2.73;;;2.60;;
4754;SDS011;2391;47.212;7.542;2022-07-29T09:32:56;3.77;;;2.70;;
4754;SDS011;2391;47.212;7.542;2022-07-29T09:35:24;4.13;;;2.87;;
4754;SDS011;2391;47.212;7.542;2022-07-29T09:37:51;3.07;;;2.77;;
4754;SDS011;2391;47.212;7.542;2022-07-29T09:40:27;3.87;;;3.47;;
4754;SDS011;2391;47.212;7.542;2022-07-29T09:42:47;3.23;;;2.83;;
4754;SDS011;2391;47.212;7.542;2022-07-29T09:45:26;3.53;;;3.23;;
4754;SDS011;2391;47.212;7.542;2022-07-29T09:47:54;7.20;;;3.53;;
4754;SDS011;2391;47.212;7.542;2022-07-29T09:50:22;3.70;;;3.40;;
4754;SDS011;2391;47.212;7.542;2022-07-29T09:53:05;4.23;;;3.93;;
4754;SDS011;2391;47.212;7.542;2022-07-29T09:55:45;7.80;;;3.50;;
4754;SDS011;2391;47.212;7.542;2022-07-29T09:58:15;4.70;;;3.53;;
4754;SDS011;2391;47.212;7.542;2022-07-29T10:00:43;3.60;;;3.30;;
4754;SDS011;2391;47.212;7.542;2022-07-29T10:03:10;3.60;;;3.30;;
4754;SDS011;2391;47.212;7.542;2022-07-29T10:05:37;3.23;;;2.93;;
4754;SDS011;2391;47.212;7.542;2022-07-29T10:08:03;3.97;;;3.70;;
4754;SDS011;2391;47.212;7.542;2022-07-29T10:10:35;3.07;;;2.87;;
4754;SDS011;2391;47.212;7.542;2022-07-29T10:13:00;3.60;;;3.30;;
4754;SDS011;2391;47.212;7.542;2022-07-29T10:15:28;3.30;;;3.10;;
4754;SDS011;2391;47.212;7.542;2022-07-29T13:44:01;2.67;;;2.43;;
4754;SDS011;2391;47.212;7.542;2022-07-29T13:46:27;12.37;;;4.00;;
4754;SDS011;2391;47.212;7.542;2022-07-29T13:48:52;6.60;;;3.70;;
4754;SDS011;2391;47.212;7.542;2022-07-29T13:51:18;5.00;;;3.43;;
4754;SDS011;2391;47.212;7.542;2022-07-29T13:53:44;5.67;;;3.50;;
4754;SDS011;2391;47.212;7.542;2022-07-29T13:56:10;3.97;;;3.67;;
4754;SDS011;2391;47.212;7.542;2022-07-29T13:58:36;5.13;;;2.63;;
4754;SDS011;2391;47.212;7.542;2022-07-29T14:01:02;3.63;;;3.03;;
4754;SDS011;2391;47.212;7.542;2022-07-29T14:03:28;5.63;;;3.20;;
4754;SDS011;2391;47.212;7.542;2022-07-29T14:05:54;3.10;;;2.80;;
4754;SDS011;2391;47.212;7.542;2022-07-29T14:08:21;10.30;;;3.33;;
4754;SDS011;2391;47.212;7.542;2022-07-29T14:10:47;5.60;;;3.10;;
4754;SDS011;2391;47.212;7.542;2022-07-29T14:13:13;7.00;;;3.50;;
4754;SDS011;2391;47.212;7.542;2022-07-29T14:15:39;13.47;;;3.70;;
4754;SDS011;2391;47.212;7.542;2022-07-29T14:18:05;3.50;;;3.20;;
4754;SDS011;2391;47.212;7.542;2022-07-29T14:20:31;4.60;;;3.53;;
4754;SDS011;2391;47.212;7.542;2022-07-29T14:22:57;4.33;;;4.00;;
4754;SDS011;2391;47.212;7.542;2022-07-29T14:25:23;5.73;;;3.30;;
4754;SDS011;2391;47.212;7.542;2022-07-29T14:27:49;3.40;;;3.10;;
4754;SDS011;2391;47.212;7.542;2022-07-29T14:30:14;3.40;;;3.20;;
4754;SDS011;2391;47.212;7.542;2022-07-29T14:32:40;6.00;;;3.17;;
4754;SDS011;2391;47.212;7.542;2022-07-29T14:35:07;4.60;;;3.10;;
4754;SDS011;2391;47.212;7.542;2022-07-29T14:37:33;2.93;;;2.73;;
4754;SDS011;2391;47.212;7.542;2022-07-29T14:40:01;4.17;;;2.80;;
4754;SDS011;2391;47.212;7.542;2022-07-29T14:42:29;4.80;;;2.70;;
4754;SDS011;2391;47.212;7.542;2022-07-29T14:44:57;2.77;;;2.50;;
4754;SDS011;2391;47.212;7.542;2022-07-29T14:47:23;2.67;;;2.57;;
4754;SDS011;2391;47.212;7.542;2022-07-29T14:49:50;3.47;;;3.17;;
4754;SDS011;2391;47.212;7.542;2022-07-29T14:52:16;2.67;;;2.47;;
4754;SDS011;2391;47.212;7.542;2022-07-29T14:54:42;7.63;;;2.90;;
4754;SDS011;2391;47.212;7.542;2022-07-29T14:57:07;4.63;;;3.27;;
4754;SDS011;2391;47.212;7.542;2022-07-29T14:59:33;5.07;;;2.50;;
4754;SDS011;2391;47.212;7.542;2022-07-29T15:02:00;3.50;;;3.00;;
4754;SDS011;2391;47.212;7.542;2022-07-29T15:04:26;5.03;;;2.73;;
4754;SDS011;2391;47.212;7.542;2022-07-29T15:06:52;2.83;;;2.60;;
4754;SDS011;2391;47.212;7.542;2022-07-29T15:09:18;2.77;;;2.57;;
4754;SDS011;2391;47.212;7.542;2022-07-29T15:11:43;3.67;;;3.17;;
4754;SDS011;2391;47.212;7.542;2022-07-29T15:14:10;3.13;;;2.83;;
4754;SDS011;2391;47.212;7.542;2022-07-29T15:16:37;3.70;;;3.40;;
4754;SDS011;2391;47.212;7.542;2022-07-29T15:19:04;5.23;;;3.03;;
4754;SDS011;2391;47.212;7.542;2022-07-29T15:21:30;3.10;;;2.90;;
4754;SDS011;2391;47.212;7.542;2022-07-29T15:23:56;4.10;;;3.33;;
4754;SDS011;2391;47.212;7.542;2022-07-29T15:26:22;3.43;;;3.13;;
4754;SDS011;2391;47.212;7.542;2022-07-29T15:28:48;3.97;;;3.60;;
4754;SDS011;2391;47.212;7.542;2022-07-29T15:31:14;4.10;;;3.80;;
4754;SDS011;2391;47.212;7.542;2022-07-29T15:33:40;3.63;;;3.37;;
4754;SDS011;2391;47.212;7.542;2022-07-29T15:36:06;4.03;;;3.60;;
4754;SDS011;2391;47.212;7.542;2022-07-29T15:38:32;3.97;;;3.67;;
4754;SDS011;2391;47.212;7.542;2022-07-29T15:40:58;3.87;;;3.50;;
4754;SDS011;2391;47.212;7.542;2022-07-29T15:43:24;4.87;;;3.57;;
4754;SDS011;2391;47.212;7.542;2022-07-29T15:45:50;3.87;;;3.40;;
4754;SDS011;2391;47.212;7.542;2022-07-29T15:48:37;3.00;;;2.80;;
4754;SDS011;2391;47.212;7.542;2022-07-29T15:51:03;3.40;;;3.23;;
4754;SDS011;2391;47.212;7.542;2022-07-29T15:53:29;4.30;;;3.80;;
4754;SDS011;2391;47.212;7.542;2022-07-29T15:55:55;3.53;;;3.20;;
4754;SDS011;2391;47.212;7.542;2022-07-29T15:58:21;3.90;;;3.60;;
4754;SDS011;2391;47.212;7.542;2022-07-29T16:00:47;3.70;;;3.40;;
4754;SDS011;2391;47.212;7.542;2022-07-29T16:03:13;4.77;;;3.63;;
4754;SDS011;2391;47.212;7.542;2022-07-29T16:05:39;3.93;;;3.37;;
4754;SDS011;2391;47.212;7.542;2022-07-29T16:08:05;4.40;;;4.00;;
4754;SDS011;2391;47.212;7.542;2022-07-29T16:10:31;4.77;;;4.17;;
4754;SDS011;2391;47.212;7.542;2022-07-29T16:12:57;4.23;;;3.93;;
4754;SDS011;2391;47.212;7.542;2022-07-29T16:15:23;3.57;;;3.33;;
4754;SDS011;2391;47.212;7.542;2022-07-29T16:17:49;4.30;;;3.80;;
4754;SDS011;2391;47.212;7.542;2022-07-29T16:20:14;4.27;;;3.87;;
4754;SDS011;2391;47.212;7.542;2022-07-29T16:22:41;4.37;;;3.67;;
4754;SDS011;2391;47.212;7.542;2022-07-29T16:25:07;3.63;;;3.33;;
4754;SDS011;2391;47.212;7.542;2022-07-29T16:27:33;13.00;;;3.10;;
4754;SDS011;2391;47.212;7.542;2022-07-29T16:29:59;4.77;;;3.40;;
4754;SDS011;2391;47.212;7.542;2022-07-29T16:32:25;4.90;;;3.10;;
4754;SDS011;2391;47.212;7.542;2022-07-29T16:34:51;3.93;;;3.53;;
4754;SDS011;2391;47.212;7.542;2022-07-29T16:37:17;4.03;;;3.40;;
4754;SDS011;2391;47.212;7.542;2022-07-29T16:39:43;3.97;;;3.67;;
4754;SDS011;2391;47.212;7.542;2022-07-29T16:42:08;5.13;;;3.77;;
4754;SDS011;2391;47.212;7.542;2022-07-29T16:44:34;3.67;;;3.03;;
4754;SDS011;2391;47.212;7.542;2022-07-29T16:47:00;8.03;;;3.00;;
4754;SDS011;2391;47.212;7.542;2022-07-29T16:49:26;2.90;;;2.70;;
4754;SDS011;2391;47.212;7.542;2022-07-29T16:51:52;3.70;;;3.40;;
4754;SDS011;2391;47.212;7.542;2022-07-29T16:54:18;4.40;;;3.80;;
4754;SDS011;2391;47.212;7.542;2022-07-29T16:56:44;4.40;;;3.50;;
4754;SDS011;2391;47.212;7.542;2022-07-29T16:59:10;4.13;;;3.33;;
4754;SDS011;2391;47.212;7.542;2022-07-29T17:01:36;4.70;;;3.10;;
4754;SDS011;2391;47.212;7.542;2022-07-29T17:04:02;3.67;;;3.37;;
4754;SDS011;2391;47.212;7.542;2022-07-29T17:06:31;3.50;;;3.30;;
4754;SDS011;2391;47.212;7.542;2022-07-29T17:09:01;5.97;;;3.10;;
4754;SDS011;2391;47.212;7.542;2022-07-29T17:11:29;3.50;;;3.30;;
4754;SDS011;2391;47.212;7.542;2022-07-29T17:13:55;3.17;;;2.87;;
4754;SDS011;2391;47.212;7.542;2022-07-29T17:16:23;3.10;;;2.90;;
4754;SDS011;2391;47.212;7.542;2022-07-29T17:18:50;4.50;;;3.10;;
4754;SDS011;2391;47.212;7.542;2022-07-29T17:21:18;3.80;;;3.50;;
4754;SDS011;2391;47.212;7.542;2022-07-29T17:23:44;3.90;;;3.60;;
4754;SDS011;2391;47.212;7.542;2022-07-29T17:26:10;4.00;;;3.23;;
4754;SDS011;2391;47.212;7.542;2022-07-29T17:28:36;3.67;;;2.77;;
4754;SDS011;2391;47.212;7.542;2022-07-29T17:31:02;6.60;;;4.50;;
4754;SDS011;2391;47.212;7.542;2022-07-29T17:33:28;2.83;;;2.63;;
4754;SDS011;2391;47.212;7.542;2022-07-29T17:35:54;3.07;;;2.90;;
4754;SDS011;2391;47.212;7.542;2022-07-29T17:38:37;11.03;;;3.47;;
4754;SDS011;2391;47.212;7.542;2022-07-29T17:41:03;9.90;;;3.63;;
4754;SDS011;2391;47.212;7.542;2022-07-29T17:43:29;3.50;;;3.20;;
4754;SDS011;2391;47.212;7.542;2022-07-29T17:45:55;4.10;;;3.80;;
4754;SDS011;2391;47.212;7.542;2022-07-29T17:48:21;6.67;;;3.70;;
4754;SDS011;2391;47.212;7.542;2022-07-29T17:50:47;3.50;;;3.20;;
4754;SDS011;2391;47.212;7.542;2022-07-29T17:53:14;5.20;;;3.50;;
4754;SDS011;2391;47.212;7.542;2022-07-29T17:55:40;3.00;;;2.80;;
4754;SDS011;2391;47.212;7.542;2022-07-29T17:58:06;3.80;;;3.50;;
4754;SDS011;2391;47.212;7.542;2022-07-29T18:00:33;6.20;;;3.53;;
4754;SDS011;2391;47.212;7.542;2022-07-29T18:02:59;3.30;;;3.00;;
4754;SDS011;2391;47.212;7.542;2022-07-29T18:05:25;3.60;;;3.30;;
4754;SDS011;2391;47.212;7.542;2022-07-29T18:07:51;3.80;;;3.37;;
4754;SDS011;2391;47.212;7.542;2022-07-29T18:10:19;4.20;;;3.70;;
4754;SDS011;2391;47.212;7.542;2022-07-29T18:12:45;9.10;;;3.60;;
4754;SDS011;2391;47.212;7.542;2022-07-29T18:15:11;3.87;;;3.27;;
4754;SDS011;2391;47.212;7.542;2022-07-29T18:17:37;3.63;;;3.00;;
4754;SDS011;2391;47.212;7.542;2022-07-29T18:20:03;4.07;;;2.73;;
4754;SDS011;2391;47.212;7.542;2022-07-29T18:22:29;3.70;;;2.37;;
4754;SDS011;2391;47.212;7.542;2022-07-29T18:24:55;3.33;;;2.70;;
4754;SDS011;2391;47.212;7.542;2022-07-29T18:27:21;3.13;;;2.80;;
4754;SDS011;2391;47.212;7.542;2022-07-29T18:29:49;4.80;;;2.50;;
4754;SDS011;2391;47.212;7.542;2022-07-29T18:32:15;3.17;;;2.50;;
4754;SDS011;2391;47.212;7.542;2022-07-29T18:34:40;3.50;;;2.67;;
4754;SDS011;2391;47.212;7.542;2022-07-29T18:37:06;2.50;;;2.30;;
4754;SDS011;2391;47.212;7.542;2022-07-29T18:39:32;2.53;;;2.33;;
4754;SDS011;2391;47.212;7.542;2022-07-29T18:41:58;2.80;;;2.60;;
4754;SDS011;2391;47.212;7.542;2022-07-29T18:44:24;3.43;;;2.47;;
4754;SDS011;2391;47.212;7.542;2022-07-29T18:46:50;6.53;;;2.67;;
4754;SDS011;2391;47.212;7.542;2022-07-29T18:49:16;3.97;;;3.03;;
4754;SDS011;2391;47.212;7.542;2022-07-29T18:51:42;2.80;;;2.60;;
4754;SDS011;2391;47.212;7.542;2022-07-29T18:54:08;2.20;;;2.10;;
4754;SDS011;2391;47.212;7.542;2022-07-29T18:56:34;2.80;;;2.60;;
4754;SDS011;2391;47.212;7.542;2022-07-29T18:59:00;2.20;;;2.00;;